Time;durP1;ratioP1;P1;durP2;ratioP2;P2;SDS_P1;SDS_P2;PMS_P1;PMS_P2;Temp;Humidity;BMP_temperature;BMP_pressure;BME280_temperature;BME280_humidity;BME280_pressure;Samples;Min_cycle;Max_cycle;Signal;HPM_P1;HPM_P2
2022/09/15 00:01:03;;;;;;;77.32;49.13;;;25.90;99.90;;;;;;5033216;28;20390;-64
2022/09/15 00:03:30;;;;;;;82.60;51.90;;;25.90;99.90;;;;;;5032941;28;20026;-64
2022/09/15 00:05:56;;;;;;;79.20;48.92;;;25.90;99.90;;;;;;5033223;28;20556;-65
2022/09/15 00:08:24;;;;;;;74.03;48.17;;;25.90;99.90;;;;;;5035220;28;20490;-65
2022/09/15 00:10:54;;;;;;;71.93;48.97;;;26.00;99.90;;;;;;5036626;28;20526;-65
2022/09/15 00:13:21;;;;;;;70.80;48.72;;;26.00;99.90;;;;;;5036965;28;20029;-64
2022/09/15 00:15:51;;;;;;;66.20;48.10;;;26.00;99.90;;;;;;5036727;28;20024;-65
2022/09/15 00:18:17;;;;;;;68.95;49.03;;;26.00;99.90;;;;;;5036510;28;20025;-65
2022/09/15 00:20:45;;;;;;;70.68;47.25;;;26.10;99.90;;;;;;5036440;28;20046;-65
2022/09/15 00:23:14;;;;;;;66.18;46.40;;;26.20;99.90;;;;;;5036789;28;20056;-66
2022/09/15 00:25:47;;;;;;;62.17;44.50;;;26.30;99.90;;;;;;5036689;28;20026;-65
2022/09/15 00:28:17;;;;;;;62.58;44.25;;;26.30;99.90;;;;;;5036481;28;20088;-66
2022/09/15 00:30:45;;;;;;;61.25;44.80;;;26.50;99.90;;;;;;5036386;28;20033;-65
2022/09/15 00:33:12;;;;;;;68.97;48.42;;;26.50;99.90;;;;;;5036326;28;20475;-65
2022/09/15 00:35:43;;;;;;;68.55;45.80;;;26.60;99.90;;;;;;5036326;28;20029;-65
2022/09/15 00:38:11;;;;;;;59.92;44.72;;;26.70;99.90;;;;;;5036098;28;20032;-65
2022/09/15 00:40:50;;;;;;;59.30;42.47;;;26.70;99.90;;;;;;5036332;28;20067;-65
2022/09/15 00:43:18;;;;;;;66.43;44.40;;;26.80;99.90;;;;;;5036295;28;20027;-66
2022/09/15 00:45:44;;;;;;;68.05;45.83;;;26.90;99.90;;;;;;5036064;28;20096;-65
2022/09/15 00:48:18;;;;;;;72.40;43.47;;;26.90;99.90;;;;;;5036245;28;20032;-65
2022/09/15 00:50:50;;;;;;;58.97;42.75;;;27.10;99.90;;;;;;5036108;28;20025;-65
2022/09/15 00:53:18;;;;;;;68.30;44.38;;;27.20;99.90;;;;;;5036199;28;20115;-65
2022/09/15 00:55:47;;;;;;;56.10;42.17;;;27.10;99.90;;;;;;5035770;28;20040;-65
2022/09/15 00:58:38;;;;;;;58.05;41.85;;;27.10;99.90;;;;;;5035763;28;20030;-66
2022/09/15 01:01:06;;;;;;;52.97;40.78;;;27.20;99.90;;;;;;5033801;28;20041;-65
2022/09/15 01:03:36;;;;;;;52.50;40.20;;;27.20;99.90;;;;;;5033887;28;20040;-65
2022/09/15 01:06:20;;;;;;;53.20;39.47;;;27.20;99.90;;;;;;5034009;28;20032;-65
2022/09/15 01:09:01;;;;;;;51.60;36.42;;;27.20;99.90;;;;;;5032810;28;20042;-65
2022/09/15 01:11:28;;;;;;;51.72;36.20;;;27.20;99.90;;;;;;5033988;28;20030;-65
2022/09/15 01:13:54;;;;;;;52.30;35.90;;;27.20;99.90;;;;;;5033832;28;20025;-65
2022/09/15 01:16:25;;;;;;;45.13;33.33;;;27.10;99.90;;;;;;5033706;28;20072;-65
2022/09/15 01:19:16;;;;;;;52.03;37.75;;;27.10;99.90;;;;;;5033468;28;20041;-65
2022/09/15 01:21:49;;;;;;;52.03;37.22;;;27.10;99.90;;;;;;5033243;28;20061;-66
2022/09/15 01:24:24;;;;;;;49.83;35.55;;;27.10;99.90;;;;;;5033714;28;20039;-65
2022/09/15 01:27:21;;;;;;;44.13;33.25;;;27.20;99.90;;;;;;5033421;28;20071;-66
2022/09/15 01:30:09;;;;;;;43.53;33.65;;;27.30;99.90;;;;;;5032982;28;20022;-66
2022/09/15 01:35:39;;;;;;;47.42;34.75;;;27.40;99.90;;;;;;5033127;28;20036;-65
2022/09/15 01:38:10;;;;;;;43.25;31.70;;;27.40;99.90;;;;;;5033002;28;20085;-65
2022/09/15 01:40:53;;;;;;;48.53;35.47;;;27.50;99.90;;;;;;5032982;28;20429;-70
2022/09/15 01:43:23;;;;;;;49.70;35.70;;;27.60;99.90;;;;;;5033021;28;20021;-72
2022/09/15 01:45:52;;;;;;;48.58;35.67;;;27.60;99.90;;;;;;5032835;28;20057;-70
2022/09/15 01:48:24;;;;;;;46.90;33.70;;;27.60;99.90;;;;;;5032898;28;20430;-70
2022/09/15 01:50:55;;;;;;;52.10;37.08;;;27.60;99.90;;;;;;5032759;28;20072;-69
2022/09/15 01:53:22;;;;;;;49.10;36.17;;;27.70;99.90;;;;;;5032785;28;20502;-70
2022/09/15 01:56:09;;;;;;;48.97;35.83;;;27.80;99.90;;;;;;5032751;28;20474;-69
2022/09/15 01:58:38;;;;;;;55.75;36.58;;;27.80;99.90;;;;;;5033267;28;20494;-70
2022/09/15 02:01:13;;;;;;;52.25;37.72;;;27.80;99.90;;;;;;5034746;28;20037;-69
2022/09/15 02:03:50;;;;;;;58.33;41.85;;;27.90;99.90;;;;;;5034607;28;20028;-70
2022/09/15 02:06:42;;;;;;;40.50;31.90;;;28.10;99.90;;;;;;5034678;28;20045;-70
2022/09/15 02:09:29;;;;;;;52.13;37.97;;;28.10;99.90;;;;;;5034578;28;20060;-68
2022/09/15 02:12:18;;;;;;;52.45;39.22;;;28.30;99.90;;;;;;5034485;28;20029;-68
2022/09/15 02:14:46;;;;;;;45.63;36.17;;;28.40;99.90;;;;;;5034459;28;20029;-68
2022/09/15 02:17:18;;;;;;;49.30;35.80;;;28.50;99.90;;;;;;5034458;28;20030;-69
2022/09/15 02:19:54;;;;;;;112.38;81.10;;;28.70;99.90;;;;;;5034586;28;20029;-70
2022/09/15 02:22:25;;;;;;;134.88;106.95;;;28.70;99.90;;;;;;5035484;28;20044;-70
2022/09/15 02:25:04;;;;;;;50.90;38.95;;;28.80;99.90;;;;;;5034979;28;20025;-70
2022/09/15 02:27:39;;;;;;;44.05;36.13;;;28.90;99.90;;;;;;5035060;28;20463;-70
2022/09/15 02:30:10;;;;;;;41.25;32.05;;;29.10;99.90;;;;;;5034310;28;20144;-69
2022/09/15 02:32:41;;;;;;;43.45;30.70;;;29.10;99.90;;;;;;5034634;28;20449;-70
2022/09/15 02:35:12;;;;;;;45.97;35.28;;;29.20;99.90;;;;;;5034741;28;20495;-70
2022/09/15 02:37:38;;;;;;;36.67;30.63;;;29.20;99.90;;;;;;5034840;28;20021;-70
2022/09/15 02:40:06;;;;;;;36.58;28.65;;;29.40;99.90;;;;;;5034392;28;20022;-70
2022/09/15 02:42:33;;;;;;;34.65;28.17;;;29.40;99.90;;;;;;5034389;28;20108;-70
2022/09/15 02:45:00;;;;;;;37.17;30.10;;;29.40;99.90;;;;;;5034059;28;20100;-69
2022/09/15 02:47:28;;;;;;;41.75;31.30;;;29.40;99.90;;;;;;5034195;28;20164;-69
2022/09/15 02:49:55;;;;;;;43.33;36.47;;;29.50;99.90;;;;;;5034569;28;20075;-69
2022/09/15 02:52:22;;;;;;;38.03;28.13;;;29.50;99.90;;;;;;5034340;28;20109;-69
2022/09/15 02:54:49;;;;;;;42.53;34.22;;;29.50;99.90;;;;;;5034386;28;20025;-70
2022/09/15 02:57:16;;;;;;;156.82;100.07;;;29.40;99.90;;;;;;5034398;28;20226;-68
2022/09/15 03:02:19;;;;;;;45.92;32.95;;;29.60;99.90;;;;;;5034447;28;20025;-69
2022/09/15 03:04:47;;;;;;;36.38;27.25;;;29.70;99.90;;;;;;5034324;28;20028;-69
2022/09/15 03:07:14;;;;;;;38.08;27.80;;;29.90;99.90;;;;;;5034294;28;20032;-71
2022/09/15 03:09:40;;;;;;;34.80;28.05;;;30.00;99.90;;;;;;5033999;28;20029;-71
2022/09/15 03:12:08;;;;;;;36.15;27.42;;;30.00;99.90;;;;;;5034486;28;20064;-70
2022/09/15 03:14:34;;;;;;;32.30;25.25;;;29.90;99.90;;;;;;5034166;28;20025;-70
2022/09/15 03:17:04;;;;;;;44.78;30.52;;;30.00;99.90;;;;;;5033811;28;20390;-70
2022/09/15 03:19:30;;;;;;;139.45;105.90;;;30.00;99.90;;;;;;5034059;28;20086;-70
2022/09/15 03:21:57;;;;;;;228.20;160.38;;;30.10;99.90;;;;;;5034149;28;20068;-70
2022/09/15 03:24:23;;;;;;;293.42;224.32;;;30.10;99.90;;;;;;5033589;28;20013;-70
2022/09/15 03:26:50;;;;;;;96.68;71.72;;;30.20;99.90;;;;;;5033785;28;20021;-71
2022/09/15 03:29:16;;;;;;;39.58;30.85;;;30.30;99.90;;;;;;5061319;23;20049;-70
2022/09/15 03:31:43;;;;;;;43.70;30.88;;;30.30;99.90;;;;;;5033919;28;20022;-71
2022/09/15 03:34:10;;;;;;;44.42;33.67;;;30.30;99.90;;;;;;5033834;28;20030;-70
2022/09/15 03:36:37;;;;;;;48.55;38.55;;;30.20;99.90;;;;;;5034239;28;20151;-70
2022/09/15 03:39:03;;;;;;;64.70;45.72;;;30.10;99.90;;;;;;5033733;28;20460;-72
2022/09/15 03:41:30;;;;;;;34.95;26.35;;;30.30;99.90;;;;;;5033848;28;20040;-70
2022/09/15 03:43:56;;;;;;;37.35;25.27;;;30.40;99.90;;;;;;5036965;28;20071;-72
2022/09/15 03:46:23;;;;;;;103.03;68.95;;;30.30;99.90;;;;;;5037546;28;20017;-73
2022/09/15 03:48:50;;;;;;;32.80;25.30;;;30.40;99.90;;;;;;5039378;28;20071;-71
2022/09/15 03:51:16;;;;;;;52.53;40.60;;;30.50;99.90;;;;;;5037284;28;20220;-71
2022/09/15 03:53:43;;;;;;;75.65;56.47;;;30.80;99.90;;;;;;5037335;28;20386;-72
2022/09/15 03:56:30;;;;;;;36.63;28.00;;;30.70;99.90;;;;;;5037160;28;20025;-71
2022/09/15 03:58:58;;;;;;;25.48;21.02;;;30.50;99.90;;;;;;5037008;28;20025;-70
2022/09/15 04:01:25;;;;;;;30.77;21.30;;;30.60;99.90;;;;;;5037240;28;20060;-71
2022/09/15 04:03:52;;;;;;;30.20;20.77;;;30.50;99.90;;;;;;5037637;28;20018;-70
2022/09/15 04:06:21;;;;;;;26.48;19.60;;;30.50;99.90;;;;;;5037189;28;20445;-69
2022/09/15 04:08:48;;;;;;;27.15;19.92;;;30.60;99.90;;;;;;5037004;28;20029;-70
2022/09/15 04:11:16;;;;;;;28.15;19.65;;;30.90;99.90;;;;;;5029222;28;20483;-70
2022/09/15 04:13:43;;;;;;;24.77;18.58;;;31.20;99.90;;;;;;5027345;28;20061;-69
2022/09/15 04:16:14;;;;;;;27.52;20.02;;;31.40;99.90;;;;;;5028429;28;20375;-71
2022/09/15 04:18:41;;;;;;;25.73;19.48;;;31.40;99.90;;;;;;5037072;28;20394;-70
2022/09/15 04:21:12;;;;;;;36.65;23.15;;;31.40;99.90;;;;;;5037047;28;20036;-71
2022/09/15 04:23:39;;;;;;;27.33;20.33;;;31.40;99.90;;;;;;5037118;28;20400;-70
2022/09/15 04:26:18;;;;;;;26.80;21.45;;;31.30;99.90;;;;;;5036984;28;20026;-70
2022/09/15 04:28:45;;;;;;;28.55;21.17;;;31.20;99.90;;;;;;5035994;28;20030;-67
2022/09/15 04:31:14;;;;;;;27.15;19.48;;;31.20;99.90;;;;;;5036386;28;20037;-67
2022/09/15 04:33:43;;;;;;;22.65;18.48;;;31.10;99.90;;;;;;5036145;28;20505;-67
2022/09/15 04:36:17;;;;;;;29.63;18.90;;;31.00;99.90;;;;;;5035997;28;20037;-67
2022/09/15 04:38:46;;;;;;;21.85;16.75;;;31.00;99.90;;;;;;5036160;28;20036;-67
2022/09/15 04:41:13;;;;;;;21.75;15.90;;;31.10;99.90;;;;;;5035803;28;20029;-66
2022/09/15 04:43:42;;;;;;;21.45;16.17;;;31.30;99.90;;;;;;5036472;28;20280;-72
2022/09/15 04:46:09;;;;;;;18.98;15.90;;;31.50;99.90;;;;;;5036729;28;20026;-71
2022/09/15 04:48:36;;;;;;;21.52;15.32;;;31.60;99.90;;;;;;5034608;28;20508;-69
2022/09/15 04:51:05;;;;;;;38.50;32.47;;;31.60;99.90;;;;;;5024792;28;20037;-67
2022/09/15 04:53:32;;;;;;;50.85;36.72;;;31.60;99.90;;;;;;5024366;28;20022;-69
2022/09/15 04:56:02;;;;;;;146.48;115.47;;;31.60;99.90;;;;;;5027043;28;20025;-66
2022/09/15 04:58:34;;;;;;;30.88;25.48;;;31.70;99.90;;;;;;5026881;28;20033;-69
2022/09/15 05:01:16;;;;;;;20.83;17.47;;;31.80;99.90;;;;;;5026552;28;20029;-71
2022/09/15 05:03:45;;;;;;;22.42;16.42;;;31.80;99.90;;;;;;5029478;28;20083;-69
2022/09/15 05:06:15;;;;;;;21.10;14.65;;;31.90;99.90;;;;;;5026367;28;20009;-69
2022/09/15 05:08:42;;;;;;;21.73;16.55;;;31.90;99.90;;;;;;5026654;28;20080;-71
2022/09/15 05:11:11;;;;;;;21.25;14.93;;;31.80;99.90;;;;;;5025384;28;20382;-71
2022/09/15 05:13:39;;;;;;;19.38;14.10;;;31.90;99.90;;;;;;5027179;28;20110;-68
2022/09/15 05:16:13;;;;;;;21.65;13.50;;;31.90;99.90;;;;;;5025424;28;20046;-70
2022/09/15 05:18:41;;;;;;;16.05;13.02;;;31.90;99.90;;;;;;5023367;28;20499;-66
2022/09/15 05:21:09;;;;;;;16.02;13.05;;;31.90;99.90;;;;;;5024424;28;20052;-66
2022/09/15 05:23:37;;;;;;;19.65;14.43;;;31.70;99.90;;;;;;5030776;28;20025;-68
2022/09/15 05:26:06;;;;;;;18.08;13.43;;;31.60;99.90;;;;;;5033623;28;20455;-69
2022/09/15 05:28:35;;;;;;;20.52;12.80;;;31.60;99.90;;;;;;5034903;28;20033;-67
2022/09/15 05:31:06;;;;;;;17.13;12.73;;;31.70;99.90;;;;;;5035229;28;20053;-66
2022/09/15 05:33:34;;;;;;;21.70;14.70;;;31.70;99.90;;;;;;5029939;28;20555;-65
2022/09/15 05:36:01;;;;;;;18.90;14.77;;;31.80;99.90;;;;;;5025074;28;20040;-66
2022/09/15 05:38:30;;;;;;;21.20;15.77;;;32.00;99.90;;;;;;5023188;28;20390;-66
2022/09/15 05:41:09;;;;;;;18.95;13.63;;;32.20;99.90;;;;;;5023609;28;20040;-66
2022/09/15 05:43:37;;;;;;;20.95;13.02;;;32.30;99.70;;;;;;5024291;28;20018;-66
2022/09/15 05:46:05;;;;;;;14.75;12.63;;;32.40;98.60;;;;;;5023043;28;20050;-66
2022/09/15 05:48:32;;;;;;;16.45;11.95;;;32.50;98.50;;;;;;5024626;28;20021;-66
2022/09/15 05:50:59;;;;;;;19.05;12.75;;;32.50;98.60;;;;;;5025086;28;20487;-66
2022/09/15 05:53:26;;;;;;;16.95;13.00;;;32.60;98.10;;;;;;5026422;28;20105;-66
2022/09/15 05:55:58;;;;;;;19.88;13.75;;;32.70;98.40;;;;;;5024096;28;20025;-66
2022/09/15 05:58:26;;;;;;;16.48;13.20;;;32.60;96.60;;;;;;5025563;28;20374;-66
2022/09/15 06:00:53;;;;;;;17.48;12.10;;;32.60;96.40;;;;;;5023794;28;20064;-66
2022/09/15 06:03:21;;;;;;;14.68;12.63;;;32.50;97.30;;;;;;5023161;28;20418;-66
2022/09/15 06:05:47;;;;;;;17.38;13.25;;;32.40;97.20;;;;;;5033889;28;20021;-65
2022/09/15 06:08:14;;;;;;;16.77;12.68;;;32.40;95.60;;;;;;5023992;28;20467;-67
2022/09/15 06:10:41;;;;;;;15.50;13.70;;;32.20;95.80;;;;;;5024342;28;20105;-66
2022/09/15 06:13:07;;;;;;;18.73;13.95;;;32.20;96.50;;;;;;5021935;28;20064;-66
2022/09/15 06:15:34;;;;;;;19.33;14.30;;;32.20;97.20;;;;;;5023275;28;20018;-66
2022/09/15 06:18:01;;;;;;;19.33;13.60;;;32.30;97.00;;;;;;5023350;28;20018;-66
2022/09/15 06:20:28;;;;;;;18.00;14.23;;;32.50;97.40;;;;;;5021202;28;20022;-67
2022/09/15 06:22:55;;;;;;;15.02;11.77;;;32.50;97.50;;;;;;5014119;28;20436;-66
2022/09/15 06:25:21;;;;;;;15.60;12.63;;;32.70;95.40;;;;;;5013837;28;20109;-66
2022/09/15 06:27:49;;;;;;;15.82;12.15;;;32.70;96.20;;;;;;5014398;28;20033;-66
2022/09/15 06:30:16;;;;;;;21.48;11.27;;;32.90;94.40;;;;;;5013035;28;20052;-68
2022/09/15 06:32:43;;;;;;;14.32;10.63;;;32.80;94.90;;;;;;5011873;28;20033;-68
2022/09/15 06:35:10;;;;;;;17.42;11.63;;;32.70;92.80;;;;;;5012021;28;20100;-67
2022/09/15 06:37:36;;;;;;;15.95;11.35;;;32.50;93.00;;;;;;5012893;28;20057;-68
2022/09/15 06:40:04;;;;;;;25.35;18.85;;;32.60;93.70;;;;;;5012866;28;20030;-68
2022/09/15 06:42:31;;;;;;;286.38;215.32;;;32.70;94.50;;;;;;5013201;28;20030;-67
2022/09/15 06:44:58;;;;;;;551.20;445.40;;;32.80;95.50;;;;;;5013432;28;20026;-66
2022/09/15 06:47:24;;;;;;;384.27;278.60;;;32.90;94.00;;;;;;5013637;28;20026;-67
2022/09/15 06:49:52;;;;;;;342.98;252.23;;;32.90;95.00;;;;;;5013739;28;20049;-68
2022/09/15 06:52:19;;;;;;;184.95;126.50;;;32.90;94.80;;;;;;5013650;28;20036;-66
2022/09/15 06:54:45;;;;;;;112.07;75.55;;;33.00;93.30;;;;;;5013669;28;20522;-69
2022/09/15 06:57:12;;;;;;;112.40;80.13;;;33.00;93.70;;;;;;5013671;28;20038;-67
2022/09/15 06:59:38;;;;;;;54.78;39.55;;;33.10;94.10;;;;;;5013586;28;20029;-67
2022/09/15 07:02:05;;;;;;;33.97;23.77;;;33.20;94.30;;;;;;5013645;28;20026;-65
2022/09/15 07:04:35;;;;;;;33.70;24.95;;;33.00;93.20;;;;;;5013253;28;20460;-66
2022/09/15 07:07:02;;;;;;;43.22;22.45;;;32.90;94.40;;;;;;5032772;28;20030;-66
2022/09/15 07:09:28;;;;;;;23.50;17.00;;;32.80;94.30;;;;;;5033125;28;20029;-67
2022/09/15 07:11:55;;;;;;;44.80;30.73;;;32.80;93.90;;;;;;5033105;28;20032;-66
2022/09/15 07:14:22;;;;;;;22.75;15.88;;;33.00;93.90;;;;;;5033098;28;20029;-66
2022/09/15 07:16:48;;;;;;;19.10;15.35;;;33.20;92.20;;;;;;5032950;28;20060;-66
2022/09/15 07:19:15;;;;;;;39.97;26.80;;;33.30;92.10;;;;;;5032918;28;20030;-66
2022/09/15 07:21:41;;;;;;;40.42;28.35;;;33.20;92.20;;;;;;5033021;28;20113;-66
2022/09/15 07:24:09;;;;;;;41.17;28.35;;;33.10;93.40;;;;;;5033090;28;20101;-66
2022/09/15 07:26:36;;;;;;;28.23;20.67;;;33.10;94.40;;;;;;5032841;28;20156;-66
2022/09/15 07:29:05;;;;;;;22.33;15.88;;;33.20;94.10;;;;;;5033007;28;20045;-67
2022/09/15 07:31:34;;;;;;;17.75;12.85;;;33.40;92.80;;;;;;5032983;28;20490;-66
2022/09/15 07:34:01;;;;;;;23.80;14.73;;;33.40;91.70;;;;;;5032887;28;20551;-66
2022/09/15 07:36:28;;;;;;;22.38;13.95;;;33.40;92.10;;;;;;5032983;28;20032;-67
2022/09/15 07:38:55;;;;;;;16.77;12.32;;;33.40;91.60;;;;;;5032851;28;20095;-66
2022/09/15 07:41:24;;;;;;;17.67;13.57;;;33.40;91.40;;;;;;5032685;28;20083;-67
2022/09/15 07:43:54;;;;;;;25.33;17.23;;;33.50;91.30;;;;;;5032912;28;20048;-66
2022/09/15 07:46:23;;;;;;;25.52;16.77;;;33.60;91.10;;;;;;5032646;28;20056;-67
2022/09/15 07:48:51;;;;;;;24.90;16.88;;;33.60;90.40;;;;;;5032761;28;20084;-66
2022/09/15 07:51:19;;;;;;;21.35;14.90;;;33.70;90.70;;;;;;5032772;28;20090;-66
2022/09/15 07:53:47;;;;;;;35.08;23.88;;;33.80;89.80;;;;;;5032719;28;20095;-66
2022/09/15 07:56:16;;;;;;;27.42;17.38;;;33.80;86.80;;;;;;5032842;28;20029;-67
2022/09/15 07:58:43;;;;;;;16.27;11.52;;;33.70;86.10;;;;;;5032879;28;20036;-66
2022/09/15 08:01:10;;;;;;;18.27;12.90;;;33.60;86.30;;;;;;5032565;28;20036;-66
2022/09/15 08:03:41;;;;;;;23.33;14.93;;;33.50;87.40;;;;;;5032560;28;20586;-70
2022/09/15 08:06:09;;;;;;;26.10;14.87;;;33.50;89.20;;;;;;5032842;28;20471;-66
2022/09/15 08:08:38;;;;;;;17.38;12.88;;;33.40;90.60;;;;;;5032568;28;20026;-66
2022/09/15 08:11:08;;;;;;;20.33;14.32;;;33.30;90.70;;;;;;5032610;28;20022;-67
2022/09/15 08:13:35;;;;;;;28.23;18.52;;;33.20;90.20;;;;;;5032574;28;20475;-66
2022/09/15 08:16:08;;;;;;;25.90;17.38;;;33.20;90.80;;;;;;5032441;28;20493;-66
2022/09/15 08:18:35;;;;;;;36.95;24.60;;;33.10;90.40;;;;;;5032634;28;20036;-66
2022/09/15 08:21:05;;;;;;;29.50;19.70;;;33.00;90.50;;;;;;5032500;28;20109;-67
2022/09/15 08:23:32;;;;;;;21.63;16.85;;;33.00;91.30;;;;;;5032617;28;20025;-66
2022/09/15 08:25:59;;;;;;;24.88;18.63;;;33.00;91.40;;;;;;5032587;28;20018;-66
2022/09/15 08:28:26;;;;;;;33.83;25.38;;;32.90;91.00;;;;;;5033042;28;20049;-68
2022/09/15 08:30:58;;;;;;;23.88;17.63;;;32.80;91.10;;;;;;5035966;28;20045;-66
2022/09/15 08:33:26;;;;;;;43.90;27.55;;;32.80;91.40;;;;;;5036028;28;20028;-67
2022/09/15 08:35:54;;;;;;;87.97;54.58;;;32.80;91.70;;;;;;5035291;28;20030;-66
2022/09/15 08:38:21;;;;;;;60.30;37.42;;;32.70;91.80;;;;;;5036383;28;20048;-67
2022/09/15 08:40:47;;;;;;;34.92;23.88;;;32.70;92.20;;;;;;5036236;28;20441;-67
2022/09/15 08:43:22;;;;;;;30.20;21.33;;;32.70;92.00;;;;;;5036168;28;20029;-66
2022/09/15 08:45:56;;;;;;;27.08;18.50;;;32.70;91.90;;;;;;5035982;28;20105;-66
2022/09/15 08:48:28;;;;;;;22.40;15.27;;;32.60;92.30;;;;;;5035957;28;20478;-65
2022/09/15 08:50:59;;;;;;;24.30;17.98;;;32.60;92.40;;;;;;5035941;28;20040;-65
2022/09/15 08:53:33;;;;;;;21.75;18.30;;;32.60;92.50;;;;;;5035981;28;20136;-65
2022/09/15 08:56:03;;;;;;;28.67;18.92;;;32.50;92.50;;;;;;5017907;28;20026;-67
2022/09/15 08:58:36;;;;;;;33.65;20.73;;;32.50;92.90;;;;;;5035708;28;20037;-66
2022/09/15 09:01:12;;;;;;;30.15;22.70;;;32.50;93.00;;;;;;5035601;28;20082;-67
2022/09/15 09:03:42;;;;;;;26.52;18.70;;;32.50;93.00;;;;;;5035634;28;20025;-63
2022/09/15 09:06:12;;;;;;;36.17;23.55;;;32.50;93.00;;;;;;5036782;28;20022;-63
2022/09/15 09:08:59;;;;;;;32.10;22.05;;;32.50;92.90;;;;;;5036265;28;20026;-63
2022/09/15 09:11:44;;;;;;;31.20;20.98;;;32.50;93.00;;;;;;5035842;28;20036;-67
2022/09/15 09:14:12;;;;;;;28.63;20.38;;;32.50;93.50;;;;;;5036983;28;20478;-66
2022/09/15 09:17:09;;;;;;;32.95;22.45;;;32.40;93.10;;;;;;5037161;28;20029;-66
2022/09/15 09:19:37;;;;;;;28.35;17.90;;;32.40;93.10;;;;;;5024396;28;20525;-66
2022/09/15 09:22:12;;;;;;;27.45;18.25;;;32.30;93.00;;;;;;5030153;28;20087;-67
2022/09/15 09:24:52;;;;;;;44.03;26.48;;;32.30;92.60;;;;;;5026996;28;20133;-66
2022/09/15 09:27:26;;;;;;;51.35;31.48;;;32.30;92.30;;;;;;5028939;28;20091;-68
2022/09/15 09:30:14;;;;;;;37.60;24.15;;;32.30;92.60;;;;;;5035486;28;20045;-67
2022/09/15 09:32:48;;;;;;;30.95;18.73;;;32.30;92.90;;;;;;4954806;29;20043;-66
2022/09/15 09:35:15;;;;;;;32.83;20.33;;;32.20;93.10;;;;;;4955172;29;20114;-67
2022/09/15 09:37:42;;;;;;;22.02;16.65;;;32.20;93.20;;;;;;4956327;29;20118;-67
2022/09/15 09:40:14;;;;;;;100.03;67.45;;;32.20;92.90;;;;;;4955358;28;20445;-67
2022/09/15 09:42:41;;;;;;;391.77;289.90;;;32.10;92.90;;;;;;4954610;29;20433;-67
2022/09/15 09:45:12;;;;;;;79.13;49.58;;;32.00;92.70;;;;;;4954559;29;20023;-66
2022/09/15 09:47:40;;;;;;;38.13;19.80;;;32.00;92.40;;;;;;4954270;29;20031;-66
2022/09/15 09:50:41;;;;;;;148.48;86.60;;;31.90;92.60;;;;;;4954830;29;20038;-66
2022/09/15 09:53:32;;;;;;;202.68;108.20;;;31.90;94.00;;;;;;4954770;29;20082;-66
2022/09/15 09:56:21;;;;;;;41.80;25.83;;;31.90;93.30;;;;;;4954005;29;20499;-66
2022/09/15 09:58:47;;;;;;;72.00;40.78;;;31.90;92.80;;;;;;4954357;29;20048;-67
2022/09/15 10:01:17;;;;;;;33.53;22.02;;;31.80;93.30;;;;;;4954199;29;20456;-67
2022/09/15 10:03:44;;;;;;;48.88;27.35;;;31.70;92.60;;;;;;5009958;28;20474;-67
2022/09/15 10:06:16;;;;;;;73.22;38.88;;;31.70;92.80;;;;;;5034804;28;20032;-66
2022/09/15 10:08:58;;;;;;;60.70;33.13;;;31.70;93.20;;;;;;5035091;28;20398;-67
2022/09/15 10:11:44;;;;;;;;;;;31.70;93.70;;;;;;5035040;28;20120;-68
2022/09/15 10:14:40;;;;;;;35.90;21.70;;;31.70;93.40;;;;;;5023756;28;19909;-66
2022/09/15 10:17:10;;;;;;;37.38;22.38;;;31.60;93.30;;;;;;5032480;28;20394;-66
2022/09/15 10:19:54;;;;;;;42.92;23.88;;;31.50;93.60;;;;;;5033234;28;20055;-65
2022/09/15 10:22:32;;;;;;;41.63;26.52;;;31.50;94.10;;;;;;5026968;28;20466;-65
2022/09/15 10:25:00;;;;;;;60.38;36.00;;;31.40;93.80;;;;;;5034257;28;20074;-65
2022/09/15 10:27:36;;;;;;;48.90;27.58;;;31.40;94.60;;;;;;5034094;28;20466;-66
2022/09/15 10:30:12;;;;;;;54.17;29.77;;;31.30;94.60;;;;;;5033904;28;20057;-68
2022/09/15 10:32:39;;;;;;;57.95;30.15;;;31.30;95.00;;;;;;5034028;28;20398;-68
2022/09/15 10:35:11;;;;;;;54.95;30.48;;;31.20;95.40;;;;;;5034209;28;20089;-66
2022/09/15 10:37:45;;;;;;;40.08;24.60;;;31.30;95.40;;;;;;5034118;28;20029;-67
2022/09/15 10:40:33;;;;;;;53.17;32.15;;;31.20;94.80;;;;;;5033962;28;20479;-66
2022/09/15 10:43:19;;;;;;;44.40;28.05;;;31.20;94.90;;;;;;5034104;28;20033;-66
2022/09/15 10:45:52;;;;;;;44.60;28.30;;;31.10;94.90;;;;;;5034042;28;20021;-68
2022/09/15 10:48:39;;;;;;;48.58;28.95;;;31.10;96.20;;;;;;5033984;28;20359;-65
2022/09/15 10:51:26;;;;;;;49.05;27.27;;;31.10;96.10;;;;;;5033027;28;20478;-63
2022/09/15 10:54:01;;;;;;;50.33;29.13;;;31.10;95.90;;;;;;5032885;28;20041;-64
2022/09/15 10:56:51;;;;;;;51.80;31.05;;;31.00;95.50;;;;;;5033204;28;20029;-63
2022/09/15 10:59:33;;;;;;;55.83;32.92;;;31.00;95.90;;;;;;5033083;28;20037;-64
2022/09/15 11:02:24;;;;;;;53.53;31.92;;;30.90;95.70;;;;;;5032509;28;20493;-64
2022/09/15 11:05:04;;;;;;;50.88;27.95;;;30.90;96.20;;;;;;5033091;28;20025;-64
2022/09/15 11:07:37;;;;;;;52.80;29.58;;;30.90;96.10;;;;;;5033024;28;20036;-65
2022/09/15 11:10:28;;;;;;;53.25;26.45;;;30.80;96.20;;;;;;5033164;28;20057;-65
2022/09/15 11:13:17;;;;;;;45.85;25.83;;;30.80;96.00;;;;;;5033033;28;20025;-65
2022/09/15 11:15:53;;;;;;;42.05;26.83;;;30.70;96.50;;;;;;5033089;28;20029;-67
2022/09/15 11:19:00;;;;;;;39.83;25.15;;;30.70;96.60;;;;;;5033135;28;20100;-64
2022/09/15 11:22:02;;;;;;;44.58;24.75;;;30.70;96.70;;;;;;5029876;28;20495;-64
2022/09/15 11:24:35;;;;;;;45.33;24.52;;;30.60;97.00;;;;;;4946305;29;20086;-65
2022/09/15 11:27:06;;;;;;;41.75;23.90;;;30.60;97.30;;;;;;4952859;29;20031;-64
2022/09/15 11:29:41;;;;;;;50.03;26.55;;;30.50;97.70;;;;;;4952591;29;20087;-64
2022/09/15 11:32:14;;;;;;;44.05;28.73;;;30.50;98.40;;;;;;4952842;29;20067;-65
2022/09/15 11:34:59;;;;;;;58.53;35.35;;;30.50;98.30;;;;;;4953309;29;20444;-65
2022/09/15 11:37:39;;;;;;;52.95;30.52;;;30.40;98.90;;;;;;4952905;29;20042;-62
2022/09/15 11:40:37;;;;;;;51.63;30.05;;;30.40;99.20;;;;;;4948858;29;20495;-60
2022/09/15 11:43:23;;;;;;;48.30;29.27;;;30.50;98.90;;;;;;4952705;29;20047;-60
2022/09/15 11:45:53;;;;;;;53.88;29.48;;;30.40;99.40;;;;;;4953193;29;20039;-61
2022/09/15 11:48:28;;;;;;;52.17;27.63;;;30.40;99.20;;;;;;4942422;29;20435;-61
2022/09/15 11:50:58;;;;;;;46.67;27.33;;;30.40;99.20;;;;;;4943377;29;20031;-61
2022/09/15 11:53:30;;;;;;;46.17;26.60;;;30.30;99.00;;;;;;4948334;29;20393;-62
2022/09/15 11:55:57;;;;;;;;;;;30.30;99.40;;;;;;5018967;28;20092;-62
2022/09/15 11:58:33;;;;;;;48.83;25.73;;;30.30;99.20;;;;;;5022418;28;19909;-62
2022/09/15 12:01:09;;;;;;;48.50;26.42;;;30.20;99.70;;;;;;5022233;28;20030;-62
2022/09/15 12:03:38;;;;;;;42.88;26.25;;;30.20;99.70;;;;;;5025937;28;20033;-61
2022/09/15 12:06:15;;;;;;;39.47;27.05;;;30.20;99.90;;;;;;5028121;28;20101;-62
2022/09/15 12:08:59;;;;;;;49.65;28.55;;;30.20;99.90;;;;;;5031442;28;20026;-62
2022/09/15 12:11:29;;;;;;;41.50;26.23;;;30.20;99.90;;;;;;5027893;28;20041;-62
2022/09/15 12:13:56;;;;;;;38.65;24.67;;;30.10;99.90;;;;;;5026869;28;20040;-63
2022/09/15 12:16:24;;;;;;;40.28;25.08;;;30.10;99.90;;;;;;5026464;28;20033;-61
2022/09/15 12:18:54;;;;;;;43.85;26.60;;;30.10;99.90;;;;;;5024745;28;20497;-63
2022/09/15 12:21:36;;;;;;;50.50;27.98;;;30.00;99.90;;;;;;5032168;28;20017;-63
2022/09/15 12:24:14;;;;;;;39.08;23.92;;;30.00;99.90;;;;;;5032286;28;20022;-62
2022/09/15 12:26:42;;;;;;;53.95;28.10;;;30.00;99.90;;;;;;5032979;28;20457;-62
2022/09/15 12:29:31;;;;;;;43.45;25.77;;;29.90;99.90;;;;;;5024674;28;20132;-62
2022/09/15 12:32:19;;;;;;;48.38;25.00;;;29.90;99.90;;;;;;5026558;28;20022;-63
2022/09/15 12:35:00;;;;;;;55.13;26.20;;;29.90;99.90;;;;;;5024794;28;20022;-64
2022/09/15 12:37:36;;;;;;;61.97;28.63;;;29.90;99.90;;;;;;5016725;28;20033;-63
2022/09/15 12:40:06;;;;;;;61.25;26.65;;;29.90;99.90;;;;;;5016455;28;20049;-64
2022/09/15 12:42:35;;;;;;;49.28;23.92;;;29.90;99.90;;;;;;5016738;28;20026;-63
2022/09/15 12:45:07;;;;;;;53.83;24.73;;;29.80;99.90;;;;;;5017095;28;20049;-63
2022/09/15 12:47:49;;;;;;;51.90;22.93;;;29.80;99.90;;;;;;5016150;28;20026;-64
2022/09/15 12:50:15;;;;;;;53.20;25.65;;;29.70;99.90;;;;;;5016682;28;20077;-64
2022/09/15 12:52:45;;;;;;;49.95;23.73;;;29.70;99.90;;;;;;5023667;28;20470;-63
2022/09/15 12:55:23;;;;;;;51.40;24.42;;;29.70;99.90;;;;;;5023988;28;20429;-63